Mississippi River (Missouri), Grafton (05587450)

StateMissouriLatestUnknown (0 cfs)
RiverMississippi RiverRatingObservedEstimated
Updated2020-09-23 1:00 (33 minutes ago)Flood - The river is flooding. Obstacles can be treacherous or deadly. The river should be avoided at this stage for casual trips and definitely for the inexperienced. Trips should be attempted only with protective gear and equipment.Flood(none)(none)
Discharge(none) (median: 69000 cfs)High - The river is high and potentially dangerous, especially for the young and / or inexperienced. Normal stream obstacles are sometimes difficult to navigate. Extended distances can be attempted, but canoe travel may not be advisable.High(none)(none)
Height15.68 feetGood - Conditions are ideal for a canoe or kayak. Boats typically will drag on fewer than one-quarter of riffles, if at all, and portages are unnecessary or rare. Normal float lengths can be attempted without a problem.Good(none)(none)
TrendFalling (steady over 24 hours)Low - River is low but can still be floated. Some riffles are okay but most come with significant dragging and might need a portage. Float lengths should be reduced to accommodate low flow, dragging, and portages.Low(none)(none)
USGSExternal icon USGS Site (External icon Google Maps)Poor - River is too low to float comfortably. Most or all riffles will drag or must be portaged and some obstacles (such as slick shelf rock) cause undue problems. Avoid the river at this stage for casual paddling trips.Poor(none)(none)

Trending Data

Plot Image

Trips for Mississippi River (Missouri), Grafton (05587450)

DateStartEndDistanceConditionDischargeHeightFishingDetails

A total of 0 rows are displayed.

Condition Descriptions

Fishing Conditions

Fish Species

Notes

Classic Trip List

The classic River Trips application is still available for use. It is updated with the new system using a data retrofit. It is no longer maintained. The original River Trips application is no longer updated (as of 1 Dec 2016) but can be checked for errors or for the condition of the data before it was converted to the new system.

Gauge Data Table

ObservationHeightDischargeMaximum
Discharge
Minimum
Discharge
Mean
Discharge
P05P10P20P25P50
(Median)
P75P80P90P95
2020-09-23 01:00 15.68 304000 (1993) 26400 (2003) 91300 28100 37300 48500 51400 69000 106000 159000 204000 250000
2020-09-23 00:30 15.68 97500 304000 (1993) 26400 (2003) 91300 28100 37300 48500 51400 69000 106000 159000 204000 250000
2020-09-23 00:00 15.68 96300 304000 (1993) 26400 (2003) 91300 28100 37300 48500 51400 69000 106000 159000 204000 250000
2020-09-22 23:30 15.69 97000 291000 (1993) 26200 (2012) 89900 29700 34500 45200 50300 63700 109000 136000 222000 248000
2020-09-22 23:00 15.69 97000 291000 (1993) 26200 (2012) 89900 29700 34500 45200 50300 63700 109000 136000 222000 248000
2020-09-22 22:30 15.70 97700 291000 (1993) 26200 (2012) 89900 29700 34500 45200 50300 63700 109000 136000 222000 248000
2020-09-22 22:00 15.70 97700 291000 (1993) 26200 (2012) 89900 29700 34500 45200 50300 63700 109000 136000 222000 248000
2020-09-22 21:30 15.71 96500 291000 (1993) 26200 (2012) 89900 29700 34500 45200 50300 63700 109000 136000 222000 248000
2020-09-22 21:00 15.70 95900 291000 (1993) 26200 (2012) 89900 29700 34500 45200 50300 63700 109000 136000 222000 248000
2020-09-22 20:30 15.71 96500 291000 (1993) 26200 (2012) 89900 29700 34500 45200 50300 63700 109000 136000 222000 248000
2020-09-22 20:00 15.72 97200 291000 (1993) 26200 (2012) 89900 29700 34500 45200 50300 63700 109000 136000 222000 248000
2020-09-22 19:30 15.72 97200 291000 (1993) 26200 (2012) 89900 29700 34500 45200 50300 63700 109000 136000 222000 248000
2020-09-22 19:00 15.72 97200 291000 (1993) 26200 (2012) 89900 29700 34500 45200 50300 63700 109000 136000 222000 248000
2020-09-22 18:30 15.71 96500 291000 (1993) 26200 (2012) 89900 29700 34500 45200 50300 63700 109000 136000 222000 248000
2020-09-22 18:00 15.71 95900 291000 (1993) 26200 (2012) 89900 29700 34500 45200 50300 63700 109000 136000 222000 248000
2020-09-22 17:30 15.72 96600 291000 (1993) 26200 (2012) 89900 29700 34500 45200 50300 63700 109000 136000 222000 248000
2020-09-22 17:00 15.73 97300 291000 (1993) 26200 (2012) 89900 29700 34500 45200 50300 63700 109000 136000 222000 248000
2020-09-22 16:30 15.72 96600 291000 (1993) 26200 (2012) 89900 29700 34500 45200 50300 63700 109000 136000 222000 248000
2020-09-22 16:00 15.72 96600 291000 (1993) 26200 (2012) 89900 29700 34500 45200 50300 63700 109000 136000 222000 248000
2020-09-22 15:30 15.71 291000 (1993) 26200 (2012) 89900 29700 34500 45200 50300 63700 109000 136000 222000 248000
2020-09-22 15:00 15.74 98500 291000 (1993) 26200 (2012) 89900 29700 34500 45200 50300 63700 109000 136000 222000 248000
2020-09-22 14:30 15.73 97900 291000 (1993) 26200 (2012) 89900 29700 34500 45200 50300 63700 109000 136000 222000 248000
2020-09-22 14:00 15.74 98500 291000 (1993) 26200 (2012) 89900 29700 34500 45200 50300 63700 109000 136000 222000 248000
2020-09-22 13:30 15.75 291000 (1993) 26200 (2012) 89900 29700 34500 45200 50300 63700 109000 136000 222000 248000
2020-09-22 13:00 15.75 98600 291000 (1993) 26200 (2012) 89900 29700 34500 45200 50300 63700 109000 136000 222000 248000
2020-09-22 12:30 15.76 98700 291000 (1993) 26200 (2012) 89900 29700 34500 45200 50300 63700 109000 136000 222000 248000
2020-09-22 12:00 15.75 98000 291000 (1993) 26200 (2012) 89900 29700 34500 45200 50300 63700 109000 136000 222000 248000
2020-09-22 11:30 15.75 97400 291000 (1993) 26200 (2012) 89900 29700 34500 45200 50300 63700 109000 136000 222000 248000
2020-09-22 11:00 15.76 98100 291000 (1993) 26200 (2012) 89900 29700 34500 45200 50300 63700 109000 136000 222000 248000
2020-09-22 10:30 15.77 98700 291000 (1993) 26200 (2012) 89900 29700 34500 45200 50300 63700 109000 136000 222000 248000
2020-09-22 10:00 15.79 291000 (1993) 26200 (2012) 89900 29700 34500 45200 50300 63700 109000 136000 222000 248000
2020-09-22 09:30 15.78 98200 291000 (1993) 26200 (2012) 89900 29700 34500 45200 50300 63700 109000 136000 222000 248000
2020-09-22 09:00 15.78 291000 (1993) 26200 (2012) 89900 29700 34500 45200 50300 63700 109000 136000 222000 248000
2020-09-22 08:30 15.78 97600 291000 (1993) 26200 (2012) 89900 29700 34500 45200 50300 63700 109000 136000 222000 248000
2020-09-22 08:00 15.77 291000 (1993) 26200 (2012) 89900 29700 34500 45200 50300 63700 109000 136000 222000 248000
2020-09-22 07:30 15.77 95800 291000 (1993) 26200 (2012) 89900 29700 34500 45200 50300 63700 109000 136000 222000 248000
2020-09-22 07:00 15.77 96400 291000 (1993) 26200 (2012) 89900 29700 34500 45200 50300 63700 109000 136000 222000 248000
2020-09-22 06:30 15.78 96400 291000 (1993) 26200 (2012) 89900 29700 34500 45200 50300 63700 109000 136000 222000 248000
2020-09-22 06:00 15.78 96400 291000 (1993) 26200 (2012) 89900 29700 34500 45200 50300 63700 109000 136000 222000 248000
2020-09-22 05:30 15.78 96400 291000 (1993) 26200 (2012) 89900 29700 34500 45200 50300 63700 109000 136000 222000 248000
2020-09-22 05:00 15.78 96400 291000 (1993) 26200 (2012) 89900 29700 34500 45200 50300 63700 109000 136000 222000 248000
2020-09-22 04:30 15.78 96400 291000 (1993) 26200 (2012) 89900 29700 34500 45200 50300 63700 109000 136000 222000 248000
2020-09-22 04:00 15.78 97000 291000 (1993) 26200 (2012) 89900 29700 34500 45200 50300 63700 109000 136000 222000 248000
2020-09-22 03:30 15.77 96400 291000 (1993) 26200 (2012) 89900 29700 34500 45200 50300 63700 109000 136000 222000 248000
2020-09-22 03:00 15.79 97700 291000 (1993) 26200 (2012) 89900 29700 34500 45200 50300 63700 109000 136000 222000 248000
2020-09-22 02:30 15.78 97600 291000 (1993) 26200 (2012) 89900 29700 34500 45200 50300 63700 109000 136000 222000 248000
2020-09-22 02:00 15.78 97600 291000 (1993) 26200 (2012) 89900 29700 34500 45200 50300 63700 109000 136000 222000 248000
2020-09-22 01:30 15.78 96400 291000 (1993) 26200 (2012) 89900 29700 34500 45200 50300 63700 109000 136000 222000 248000
2020-09-22 01:00 15.78 95800 291000 (1993) 26200 (2012) 89900 29700 34500 45200 50300 63700 109000 136000 222000 248000
2020-09-22 00:30 15.79 291000 (1993) 26200 (2012) 89900 29700 34500 45200 50300 63700 109000 136000 222000 248000
2020-09-22 00:00 15.78 95800 291000 (1993) 26200 (2012) 89900 29700 34500 45200 50300 63700 109000 136000 222000 248000
2020-09-21 23:30 15.78 95800 292000 (1993) 21400 (2012) 92700 26800 34100 48100 50500 65600 112000 141000 233000 260000
2020-09-21 23:00 15.78 95800 292000 (1993) 21400 (2012) 92700 26800 34100 48100 50500 65600 112000 141000 233000 260000
2020-09-21 22:30 15.78 95800 292000 (1993) 21400 (2012) 92700 26800 34100 48100 50500 65600 112000 141000 233000 260000
2020-09-21 22:00 15.79 97100 292000 (1993) 21400 (2012) 92700 26800 34100 48100 50500 65600 112000 141000 233000 260000
2020-09-21 21:30 15.79 97100 292000 (1993) 21400 (2012) 92700 26800 34100 48100 50500 65600 112000 141000 233000 260000
2020-09-21 21:00 15.79 97100 292000 (1993) 21400 (2012) 92700 26800 34100 48100 50500 65600 112000 141000 233000 260000
2020-09-21 20:30 15.78 96400 292000 (1993) 21400 (2012) 92700 26800 34100 48100 50500 65600 112000 141000 233000 260000
2020-09-21 20:00 15.78 96400 292000 (1993) 21400 (2012) 92700 26800 34100 48100 50500 65600 112000 141000 233000 260000
2020-09-21 19:30 15.78 97000 292000 (1993) 21400 (2012) 92700 26800 34100 48100 50500 65600 112000 141000 233000 260000
2020-09-21 19:00 15.78 97600 292000 (1993) 21400 (2012) 92700 26800 34100 48100 50500 65600 112000 141000 233000 260000
2020-09-21 18:30 15.77 97500 292000 (1993) 21400 (2012) 92700 26800 34100 48100 50500 65600 112000 141000 233000 260000
2020-09-21 18:00 15.77 96400 292000 (1993) 21400 (2012) 92700 26800 34100 48100 50500 65600 112000 141000 233000 260000
2020-09-21 17:30 15.77 96400 292000 (1993) 21400 (2012) 92700 26800 34100 48100 50500 65600 112000 141000 233000 260000
2020-09-21 17:00 15.77 97000 292000 (1993) 21400 (2012) 92700 26800 34100 48100 50500 65600 112000 141000 233000 260000
2020-09-21 16:30 15.78 97600 292000 (1993) 21400 (2012) 92700 26800 34100 48100 50500 65600 112000 141000 233000 260000
2020-09-21 16:00 15.76 96300 292000 (1993) 21400 (2012) 92700 26800 34100 48100 50500 65600 112000 141000 233000 260000
2020-09-21 15:30 15.76 96300 292000 (1993) 21400 (2012) 92700 26800 34100 48100 50500 65600 112000 141000 233000 260000
2020-09-21 15:00 15.76 96900 292000 (1993) 21400 (2012) 92700 26800 34100 48100 50500 65600 112000 141000 233000 260000
2020-09-21 14:30 15.77 97500 292000 (1993) 21400 (2012) 92700 26800 34100 48100 50500 65600 112000 141000 233000 260000
2020-09-21 14:00 15.76 292000 (1993) 21400 (2012) 92700 26800 34100 48100 50500 65600 112000 141000 233000 260000
2020-09-21 13:30 15.77 97500 292000 (1993) 21400 (2012) 92700 26800 34100 48100 50500 65600 112000 141000 233000 260000
2020-09-21 13:00 15.76 97500 292000 (1993) 21400 (2012) 92700 26800 34100 48100 50500 65600 112000 141000 233000 260000
2020-09-21 12:30 15.77 85600 292000 (1993) 21400 (2012) 92700 26800 34100 48100 50500 65600 112000 141000 233000 260000
2020-09-21 12:00 15.75 292000 (1993) 21400 (2012) 92700 26800 34100 48100 50500 65600 112000 141000 233000 260000
2020-09-21 11:30 15.76 85100 292000 (1993) 21400 (2012) 92700 26800 34100 48100 50500 65600 112000 141000 233000 260000
2020-09-21 11:00 15.76 85600 292000 (1993) 21400 (2012) 92700 26800 34100 48100 50500 65600 112000 141000 233000 260000
2020-09-21 10:30 15.76 85600 292000 (1993) 21400 (2012) 92700 26800 34100 48100 50500 65600 112000 141000 233000 260000
2020-09-21 10:00 15.76 86100 292000 (1993) 21400 (2012) 92700 26800 34100 48100 50500 65600 112000 141000 233000 260000
2020-09-21 09:30 15.77 292000 (1993) 21400 (2012) 92700 26800 34100 48100 50500 65600 112000 141000 233000 260000
2020-09-21 09:00 15.76 85600 292000 (1993) 21400 (2012) 92700 26800 34100 48100 50500 65600 112000 141000 233000 260000
2020-09-21 08:30 15.75 84600 292000 (1993) 21400 (2012) 92700 26800 34100 48100 50500 65600 112000 141000 233000 260000
2020-09-21 08:00 15.73 292000 (1993) 21400 (2012) 92700 26800 34100 48100 50500 65600 112000 141000 233000 260000
2020-09-21 07:30 15.74 84600 292000 (1993) 21400 (2012) 92700 26800 34100 48100 50500 65600 112000 141000 233000 260000
2020-09-21 07:00 15.74 292000 (1993) 21400 (2012) 92700 26800 34100 48100 50500 65600 112000 141000 233000 260000
2020-09-21 06:30 15.74 85100 292000 (1993) 21400 (2012) 92700 26800 34100 48100 50500 65600 112000 141000 233000 260000
2020-09-21 06:00 15.74 84600 292000 (1993) 21400 (2012) 92700 26800 34100 48100 50500 65600 112000 141000 233000 260000
2020-09-21 05:30 15.74 84600 292000 (1993) 21400 (2012) 92700 26800 34100 48100 50500 65600 112000 141000 233000 260000
2020-09-21 05:00 15.75 292000 (1993) 21400 (2012) 92700 26800 34100 48100 50500 65600 112000 141000 233000 260000
2020-09-21 04:30 15.74 84600 292000 (1993) 21400 (2012) 92700 26800 34100 48100 50500 65600 112000 141000 233000 260000
2020-09-21 04:00 15.73 83500 292000 (1993) 21400 (2012) 92700 26800 34100 48100 50500 65600 112000 141000 233000 260000
2020-09-21 03:30 15.73 84100 292000 (1993) 21400 (2012) 92700 26800 34100 48100 50500 65600 112000 141000 233000 260000
2020-09-21 03:00 15.72 83000 292000 (1993) 21400 (2012) 92700 26800 34100 48100 50500 65600 112000 141000 233000 260000
2020-09-21 02:30 15.72 83500 292000 (1993) 21400 (2012) 92700 26800 34100 48100 50500 65600 112000 141000 233000 260000
2020-09-21 02:00 15.72 84000 292000 (1993) 21400 (2012) 92700 26800 34100 48100 50500 65600 112000 141000 233000 260000
2020-09-21 01:30 15.71 292000 (1993) 21400 (2012) 92700 26800 34100 48100 50500 65600 112000 141000 233000 260000
2020-09-21 01:00 15.73 85000 292000 (1993) 21400 (2012) 92700 26800 34100 48100 50500 65600 112000 141000 233000 260000
2020-09-21 00:30 15.71 292000 (1993) 21400 (2012) 92700 26800 34100 48100 50500 65600 112000 141000 233000 260000
2020-09-21 00:00 15.72 292000 (1993) 21400 (2012) 92700 26800 34100 48100 50500 65600 112000 141000 233000 260000
2020-09-20 23:30 15.75 86500 293000 (1993) 20500 (2012) 92800 28500 36200 43700 47900 63000 107000 135000 240000 284000
2020-09-20 23:00 15.76 293000 (1993) 20500 (2012) 92800 28500 36200 43700 47900 63000 107000 135000 240000 284000
2020-09-20 22:30 15.76 86100 293000 (1993) 20500 (2012) 92800 28500 36200 43700 47900 63000 107000 135000 240000 284000
2020-09-20 22:00 15.75 85100 293000 (1993) 20500 (2012) 92800 28500 36200 43700 47900 63000 107000 135000 240000 284000
2020-09-20 21:30 15.74 293000 (1993) 20500 (2012) 92800 28500 36200 43700 47900 63000 107000 135000 240000 284000
2020-09-20 21:00 15.77 87100 293000 (1993) 20500 (2012) 92800 28500 36200 43700 47900 63000 107000 135000 240000 284000
2020-09-20 20:30 15.78 87100 293000 (1993) 20500 (2012) 92800 28500 36200 43700 47900 63000 107000 135000 240000 284000
2020-09-20 20:00 15.78 87100 293000 (1993) 20500 (2012) 92800 28500 36200 43700 47900 63000 107000 135000 240000 284000
2020-09-20 19:30 15.78 293000 (1993) 20500 (2012) 92800 28500 36200 43700 47900 63000 107000 135000 240000 284000
2020-09-20 19:00 15.75 293000 (1993) 20500 (2012) 92800 28500 36200 43700 47900 63000 107000 135000 240000 284000
2020-09-20 18:30 15.75 293000 (1993) 20500 (2012) 92800 28500 36200 43700 47900 63000 107000 135000 240000 284000
2020-09-20 18:00 15.78 87100 293000 (1993) 20500 (2012) 92800 28500 36200 43700 47900 63000 107000 135000 240000 284000
2020-09-20 17:30 15.75 293000 (1993) 20500 (2012) 92800 28500 36200 43700 47900 63000 107000 135000 240000 284000
2020-09-20 17:00 15.79 89000 293000 (1993) 20500 (2012) 92800 28500 36200 43700 47900 63000 107000 135000 240000 284000
2020-09-20 16:30 15.78 293000 (1993) 20500 (2012) 92800 28500 36200 43700 47900 63000 107000 135000 240000 284000
2020-09-20 16:00 15.82 293000 (1993) 20500 (2012) 92800 28500 36200 43700 47900 63000 107000 135000 240000 284000
2020-09-20 15:30 15.80 89100 293000 (1993) 20500 (2012) 92800 28500 36200 43700 47900 63000 107000 135000 240000 284000
2020-09-20 15:00 15.78 293000 (1993) 20500 (2012) 92800 28500 36200 43700 47900 63000 107000 135000 240000 284000
2020-09-20 14:30 15.83 90600 293000 (1993) 20500 (2012) 92800 28500 36200 43700 47900 63000 107000 135000 240000 284000
2020-09-20 14:00 15.80 293000 (1993) 20500 (2012) 92800 28500 36200 43700 47900 63000 107000 135000 240000 284000
2020-09-20 13:30 15.85 92100 293000 (1993) 20500 (2012) 92800 28500 36200 43700 47900 63000 107000 135000 240000 284000
2020-09-20 13:00 15.84 293000 (1993) 20500 (2012) 92800 28500 36200 43700 47900 63000 107000 135000 240000 284000
2020-09-20 12:30 15.87 92700 293000 (1993) 20500 (2012) 92800 28500 36200 43700 47900 63000 107000 135000 240000 284000
2020-09-20 12:00 15.91 293000 (1993) 20500 (2012) 92800 28500 36200 43700 47900 63000 107000 135000 240000 284000
2020-09-20 11:30 15.89 93700 293000 (1993) 20500 (2012) 92800 28500 36200 43700 47900 63000 107000 135000 240000 284000
2020-09-20 11:00 15.91 293000 (1993) 20500 (2012) 92800 28500 36200 43700 47900 63000 107000 135000 240000 284000
2020-09-20 10:30 15.90 92200 293000 (1993) 20500 (2012) 92800 28500 36200 43700 47900 63000 107000 135000 240000 284000
2020-09-20 10:00 15.88 293000 (1993) 20500 (2012) 92800 28500 36200 43700 47900 63000 107000 135000 240000 284000
2020-09-20 09:30 15.91 93300 293000 (1993) 20500 (2012) 92800 28500 36200 43700 47900 63000 107000 135000 240000 284000
2020-09-20 09:00 15.89 91700 293000 (1993) 20500 (2012) 92800 28500 36200 43700 47900 63000 107000 135000 240000 284000
2020-09-20 08:30 15.90 92800 293000 (1993) 20500 (2012) 92800 28500 36200 43700 47900 63000 107000 135000 240000 284000
2020-09-20 08:00 15.90 92800 293000 (1993) 20500 (2012) 92800 28500 36200 43700 47900 63000 107000 135000 240000 284000
2020-09-20 07:30 15.88 293000 (1993) 20500 (2012) 92800 28500 36200 43700 47900 63000 107000 135000 240000 284000
2020-09-20 07:00 15.90 91700 293000 (1993) 20500 (2012) 92800 28500 36200 43700 47900 63000 107000 135000 240000 284000
2020-09-20 06:30 15.89 293000 (1993) 20500 (2012) 92800 28500 36200 43700 47900 63000 107000 135000 240000 284000
2020-09-20 06:00 15.88 90600 293000 (1993) 20500 (2012) 92800 28500 36200 43700 47900 63000 107000 135000 240000 284000
2020-09-20 05:30 15.89 91700 293000 (1993) 20500 (2012) 92800 28500 36200 43700 47900 63000 107000 135000 240000 284000
2020-09-20 05:00 15.90 293000 (1993) 20500 (2012) 92800 28500 36200 43700 47900 63000 107000 135000 240000 284000
2020-09-20 04:30 15.90 293000 (1993) 20500 (2012) 92800 28500 36200 43700 47900 63000 107000 135000 240000 284000
2020-09-20 04:00 15.89 91100 293000 (1993) 20500 (2012) 92800 28500 36200 43700 47900 63000 107000 135000 240000 284000
2020-09-20 03:30 15.88 89500 293000 (1993) 20500 (2012) 92800 28500 36200 43700 47900 63000 107000 135000 240000 284000
2020-09-20 03:00 15.87 293000 (1993) 20500 (2012) 92800 28500 36200 43700 47900 63000 107000 135000 240000 284000
2020-09-20 02:30 15.86 293000 (1993) 20500 (2012) 92800 28500 36200 43700 47900 63000 107000 135000 240000 284000
2020-09-20 02:00 15.84 87500 293000 (1993) 20500 (2012) 92800 28500 36200 43700 47900 63000 107000 135000 240000 284000
2020-09-20 01:30 15.83 87000 293000 (1993) 20500 (2012) 92800 28500 36200 43700 47900 63000 107000 135000 240000 284000
2020-09-20 01:00 15.81 85500 293000 (1993) 20500 (2012) 92800 28500 36200 43700 47900 63000 107000 135000 240000 284000
2020-09-20 00:30 15.80 85500 293000 (1993) 20500 (2012) 92800 28500 36200 43700 47900 63000 107000 135000 240000 284000
2020-09-20 00:00 15.79 293000 (1993) 20500 (2012) 92800 28500 36200 43700 47900 63000 107000 135000 240000 284000
2020-09-19 23:30 15.78 309000 (2008) 23500 (2012) 93000 25200 33800 45000 47400 65300 94300 114000 245000 302000
2020-09-19 23:00 15.77 309000 (2008) 23500 (2012) 93000 25200 33800 45000 47400 65300 94300 114000 245000 302000
2020-09-19 22:30 15.75 83500 309000 (2008) 23500 (2012) 93000 25200 33800 45000 47400 65300 94300 114000 245000 302000
2020-09-19 22:00 15.73 82000 309000 (2008) 23500 (2012) 93000 25200 33800 45000 47400 65300 94300 114000 245000 302000
2020-09-19 21:30 15.71 80500 309000 (2008) 23500 (2012) 93000 25200 33800 45000 47400 65300 94300 114000 245000 302000
2020-09-19 21:00 15.71 309000 (2008) 23500 (2012) 93000 25200 33800 45000 47400 65300 94300 114000 245000 302000
2020-09-19 20:30 15.68 78500 309000 (2008) 23500 (2012) 93000 25200 33800 45000 47400 65300 94300 114000 245000 302000
2020-09-19 20:00 15.67 309000 (2008) 23500 (2012) 93000 25200 33800 45000 47400 65300 94300 114000 245000 302000
2020-09-19 19:30 15.66 309000 (2008) 23500 (2012) 93000 25200 33800 45000 47400 65300 94300 114000 245000 302000
2020-09-19 19:00 15.65 309000 (2008) 23500 (2012) 93000 25200 33800 45000 47400 65300 94300 114000 245000 302000
2020-09-19 18:30 15.56 309000 (2008) 23500 (2012) 93000 25200 33800 45000 47400 65300 94300 114000 245000 302000
2020-09-19 18:00 15.59 74100 309000 (2008) 23500 (2012) 93000 25200 33800 45000 47400 65300 94300 114000 245000 302000
2020-09-19 17:30 15.56 72600 309000 (2008) 23500 (2012) 93000 25200 33800 45000 47400 65300 94300 114000 245000 302000
2020-09-19 17:00 15.52 309000 (2008) 23500 (2012) 93000 25200 33800 45000 47400 65300 94300 114000 245000 302000
2020-09-19 16:30 15.53 74200 309000 (2008) 23500 (2012) 93000 25200 33800 45000 47400 65300 94300 114000 245000 302000
2020-09-19 16:00 15.52 309000 (2008) 23500 (2012) 93000 25200 33800 45000 47400 65300 94300 114000 245000 302000
2020-09-19 15:30 15.54 75500 309000 (2008) 23500 (2012) 93000 25200 33800 45000 47400 65300 94300 114000 245000 302000
2020-09-19 15:00 15.56 309000 (2008) 23500 (2012) 93000 25200 33800 45000 47400 65300 94300 114000 245000 302000
2020-09-19 14:30 15.58 309000 (2008) 23500 (2012) 93000 25200 33800 45000 47400 65300 94300 114000 245000 302000
2020-09-19 14:00 15.54 309000 (2008) 23500 (2012) 93000 25200 33800 45000 47400 65300 94300 114000 245000 302000
2020-09-19 13:30 15.52 309000 (2008) 23500 (2012) 93000 25200 33800 45000 47400 65300 94300 114000 245000 302000
2020-09-19 13:00 15.58 79100 309000 (2008) 23500 (2012) 93000 25200 33800 45000 47400 65300 94300 114000 245000 302000
2020-09-19 12:30 15.57 309000 (2008) 23500 (2012) 93000 25200 33800 45000 47400 65300 94300 114000 245000 302000
2020-09-19 12:00 15.59 80400 309000 (2008) 23500 (2012) 93000 25200 33800 45000 47400 65300 94300 114000 245000 302000
2020-09-19 11:30 15.60 80600 309000 (2008) 23500 (2012) 93000 25200 33800 45000 47400 65300 94300 114000 245000 302000
2020-09-19 11:00 15.60 309000 (2008) 23500 (2012) 93000 25200 33800 45000 47400 65300 94300 114000 245000 302000
2020-09-19 10:30 15.59 79700 309000 (2008) 23500 (2012) 93000 25200 33800 45000 47400 65300 94300 114000 245000 302000
2020-09-19 10:00 15.58 78800 309000 (2008) 23500 (2012) 93000 25200 33800 45000 47400 65300 94300 114000 245000 302000
2020-09-19 09:30 15.59 79700 309000 (2008) 23500 (2012) 93000 25200 33800 45000 47400 65300 94300 114000 245000 302000
2020-09-19 09:00 15.57 309000 (2008) 23500 (2012) 93000 25200 33800 45000 47400 65300 94300 114000 245000 302000
2020-09-19 08:30 15.60 80600 309000 (2008) 23500 (2012) 93000 25200 33800 45000 47400 65300 94300 114000 245000 302000
2020-09-19 08:00 15.59 79700 309000 (2008) 23500 (2012) 93000 25200 33800 45000 47400 65300 94300 114000 245000 302000
2020-09-19 07:30 15.59 79300 309000 (2008) 23500 (2012) 93000 25200 33800 45000 47400 65300 94300 114000 245000 302000
2020-09-19 07:00 15.58 78800 309000 (2008) 23500 (2012) 93000 25200 33800 45000 47400 65300 94300 114000 245000 302000
2020-09-19 06:30 15.59 309000 (2008) 23500 (2012) 93000 25200 33800 45000 47400 65300 94300 114000 245000 302000
2020-09-19 06:00 15.57 78600 309000 (2008) 23500 (2012) 93000 25200 33800 45000 47400 65300 94300 114000 245000 302000
2020-09-19 05:30 15.56 77300 309000 (2008) 23500 (2012) 93000 25200 33800 45000 47400 65300 94300 114000 245000 302000
2020-09-19 05:00 15.55 309000 (2008) 23500 (2012) 93000 25200 33800 45000 47400 65300 94300 114000 245000 302000
2020-09-19 04:30 15.53 76100 309000 (2008) 23500 (2012) 93000 25200 33800 45000 47400 65300 94300 114000 245000 302000
2020-09-19 04:00 15.53 76500 309000 (2008) 23500 (2012) 93000 25200 33800 45000 47400 65300 94300 114000 245000 302000
2020-09-19 03:30 15.49 309000 (2008) 23500 (2012) 93000 25200 33800 45000 47400 65300 94300 114000 245000 302000
2020-09-19 03:00 15.48 309000 (2008) 23500 (2012) 93000 25200 33800 45000 47400 65300 94300 114000 245000 302000
2020-09-19 02:30 15.50 309000 (2008) 23500 (2012) 93000 25200 33800 45000 47400 65300 94300 114000 245000 302000
2020-09-19 02:00 15.53 81300 309000 (2008) 23500 (2012) 93000 25200 33800 45000 47400 65300 94300 114000 245000 302000
2020-09-19 01:30 15.57 84000 309000 (2008) 23500 (2012) 93000 25200 33800 45000 47400 65300 94300 114000 245000 302000
2020-09-19 01:00 15.59 85500 309000 (2008) 23500 (2012) 93000 25200 33800 45000 47400 65300 94300 114000 245000 302000
2020-09-19 00:30 15.64 87500 309000 (2008) 23500 (2012) 93000 25200 33800 45000 47400 65300 94300 114000 245000 302000
2020-09-19 00:00 15.66 309000 (2008) 23500 (2012) 93000 25200 33800 45000 47400 65300 94300 114000 245000 302000
2020-09-18 23:30 15.66 312000 (2008) 23400 (2003) 93900 27900 33000 48200 52900 64700 95800 107000 250000 309000
2020-09-18 23:00 15.71 89800 312000 (2008) 23400 (2003) 93900 27900 33000 48200 52900 64700 95800 107000 250000 309000
2020-09-18 22:30 15.74 91500 312000 (2008) 23400 (2003) 93900 27900 33000 48200 52900 64700 95800 107000 250000 309000
2020-09-18 22:00 15.76 312000 (2008) 23400 (2003) 93900 27900 33000 48200 52900 64700 95800 107000 250000 309000
2020-09-18 21:30 15.76 312000 (2008) 23400 (2003) 93900 27900 33000 48200 52900 64700 95800 107000 250000 309000
2020-09-18 21:00 15.83 97400 312000 (2008) 23400 (2003) 93900 27900 33000 48200 52900 64700 95800 107000 250000 309000
2020-09-18 20:30 15.86 97700 312000 (2008) 23400 (2003) 93900 27900 33000 48200 52900 64700 95800 107000 250000 309000
2020-09-18 20:00 15.88 312000 (2008) 23400 (2003) 93900 27900 33000 48200 52900 64700 95800 107000 250000 309000
2020-09-18 19:30 15.88 312000 (2008) 23400 (2003) 93900 27900 33000 48200 52900 64700 95800 107000 250000 309000
2020-09-18 19:00 15.95 104000 312000 (2008) 23400 (2003) 93900 27900 33000 48200 52900 64700 95800 107000 250000 309000
2020-09-18 18:30 15.95 103000 312000 (2008) 23400 (2003) 93900 27900 33000 48200 52900 64700 95800 107000 250000 309000
2020-09-18 18:00 15.99 107000 312000 (2008) 23400 (2003) 93900 27900 33000 48200 52900 64700 95800 107000 250000 309000
2020-09-18 17:30 15.99 106000 312000 (2008) 23400 (2003) 93900 27900 33000 48200 52900 64700 95800 107000 250000 309000
2020-09-18 17:00 15.99 312000 (2008) 23400 (2003) 93900 27900 33000 48200 52900 64700 95800 107000 250000 309000
2020-09-18 16:30 16.01 106000 312000 (2008) 23400 (2003) 93900 27900 33000 48200 52900 64700 95800 107000 250000 309000
2020-09-18 16:00 16.01 312000 (2008) 23400 (2003) 93900 27900 33000 48200 52900 64700 95800 107000 250000 309000
2020-09-18 15:30 16.05 108000 312000 (2008) 23400 (2003) 93900 27900 33000 48200 52900 64700 95800 107000 250000 309000
2020-09-18 15:00 16.05 312000 (2008) 23400 (2003) 93900 27900 33000 48200 52900 64700 95800 107000 250000 309000
2020-09-18 14:30 16.07 109000 312000 (2008) 23400 (2003) 93900 27900 33000 48200 52900 64700 95800 107000 250000 309000
2020-09-18 14:00 16.06 312000 (2008) 23400 (2003) 93900 27900 33000 48200 52900 64700 95800 107000 250000 309000
2020-09-18 13:30 16.07 110000 312000 (2008) 23400 (2003) 93900 27900 33000 48200 52900 64700 95800 107000 250000 309000
2020-09-18 13:00 16.07 110000 312000 (2008) 23400 (2003) 93900 27900 33000 48200 52900 64700 95800 107000 250000 309000
2020-09-18 12:30 16.09 111000 312000 (2008) 23400 (2003) 93900 27900 33000 48200 52900 64700 95800 107000 250000 309000
2020-09-18 12:00 16.07 110000 312000 (2008) 23400 (2003) 93900 27900 33000 48200 52900 64700 95800 107000 250000 309000
2020-09-18 11:30 16.07 110000 312000 (2008) 23400 (2003) 93900 27900 33000 48200 52900 64700 95800 107000 250000 309000
2020-09-18 11:00 16.05 109000 312000 (2008) 23400 (2003) 93900 27900 33000 48200 52900 64700 95800 107000 250000 309000
2020-09-18 10:30 16.06 109000 312000 (2008) 23400 (2003) 93900 27900 33000 48200 52900 64700 95800 107000 250000 309000
2020-09-18 10:00 16.07 110000 312000 (2008) 23400 (2003) 93900 27900 33000 48200 52900 64700 95800 107000 250000 309000
2020-09-18 09:30 16.07 109000 312000 (2008) 23400 (2003) 93900 27900 33000 48200 52900 64700 95800 107000 250000 309000
2020-09-18 09:00 16.07 109000 312000 (2008) 23400 (2003) 93900 27900 33000 48200 52900 64700 95800 107000 250000 309000
2020-09-18 08:30 16.05 109000 312000 (2008) 23400 (2003) 93900 27900 33000 48200 52900 64700 95800 107000 250000 309000
2020-09-18 08:00 16.04 108000 312000 (2008) 23400 (2003) 93900 27900 33000 48200 52900 64700 95800 107000 250000 309000
2020-09-18 07:30 16.06 110000 312000 (2008) 23400 (2003) 93900 27900 33000 48200 52900 64700 95800 107000 250000 309000
2020-09-18 07:00 16.04 109000 312000 (2008) 23400 (2003) 93900 27900 33000 48200 52900 64700 95800 107000 250000 309000
2020-09-18 06:30 16.04 109000 312000 (2008) 23400 (2003) 93900 27900 33000 48200 52900 64700 95800 107000 250000 309000
2020-09-18 06:00 16.04 110000 312000 (2008) 23400 (2003) 93900 27900 33000 48200 52900 64700 95800 107000 250000 309000
2020-09-18 05:30 16.03 109000 312000 (2008) 23400 (2003) 93900 27900 33000 48200 52900 64700 95800 107000 250000 309000
2020-09-18 05:00 16.04 110000 312000 (2008) 23400 (2003) 93900 27900 33000 48200 52900 64700 95800 107000 250000 309000
2020-09-18 04:30 16.02 110000 312000 (2008) 23400 (2003) 93900 27900 33000 48200 52900 64700 95800 107000 250000 309000
2020-09-18 04:00 16.02 109000 312000 (2008) 23400 (2003) 93900 27900 33000 48200 52900 64700 95800 107000 250000 309000
2020-09-18 03:30 16.01 109000 312000 (2008) 23400 (2003) 93900 27900 33000 48200 52900 64700 95800 107000 250000 309000
2020-09-18 03:00 15.99 108000 312000 (2008) 23400 (2003) 93900 27900 33000 48200 52900 64700 95800 107000 250000 309000
2020-09-18 02:30 15.98 108000 312000 (2008) 23400 (2003) 93900 27900 33000 48200 52900 64700 95800 107000 250000 309000
2020-09-18 02:00 15.99 312000 (2008) 23400 (2003) 93900 27900 33000 48200 52900 64700 95800 107000 250000 309000
2020-09-18 01:30 15.96 107000 312000 (2008) 23400 (2003) 93900 27900 33000 48200 52900 64700 95800 107000 250000 309000
2020-09-18 01:00 15.95 107000 312000 (2008) 23400 (2003) 93900 27900 33000 48200 52900 64700 95800 107000 250000 309000
2020-09-18 00:30 15.95 108000 312000 (2008) 23400 (2003) 93900 27900 33000 48200 52900 64700 95800 107000 250000 309000
2020-09-18 00:00 15.96 109000 312000 (2008) 23400 (2003) 93900 27900 33000 48200 52900 64700 95800 107000 250000 309000
2020-09-17 23:30 15.95 107000 313000 (1993) 31500 (1988) 95200 31900 35400 52200 55300 65300 95000 98700 253000 310000
2020-09-17 23:00 15.95 107000 313000 (1993) 31500 (1988) 95200 31900 35400 52200 55300 65300 95000 98700 253000 310000
2020-09-17 22:30 15.96 109000 313000 (1993) 31500 (1988) 95200 31900 35400 52200 55300 65300 95000 98700 253000 310000
2020-09-17 22:00 15.96 109000 313000 (1993) 31500 (1988) 95200 31900 35400 52200 55300 65300 95000 98700 253000 310000
2020-09-17 21:30 15.97 109000 313000 (1993) 31500 (1988) 95200 31900 35400 52200 55300 65300 95000 98700 253000 310000
2020-09-17 21:00 15.96 313000 (1993) 31500 (1988) 95200 31900 35400 52200 55300 65300 95000 98700 253000 310000
2020-09-17 20:30 15.97 313000 (1993) 31500 (1988) 95200 31900 35400 52200 55300 65300 95000 98700 253000 310000
2020-09-17 20:00 15.97 110000 313000 (1993) 31500 (1988) 95200 31900 35400 52200 55300 65300 95000 98700 253000 310000
2020-09-17 19:30 15.99 112000 313000 (1993) 31500 (1988) 95200 31900 35400 52200 55300 65300 95000 98700 253000 310000
2020-09-17 19:00 16.00 313000 (1993) 31500 (1988) 95200 31900 35400 52200 55300 65300 95000 98700 253000 310000
2020-09-17 18:30 16.02 111000 313000 (1993) 31500 (1988) 95200 31900 35400 52200 55300 65300 95000 98700 253000 310000
2020-09-17 18:00 16.02 111000 313000 (1993) 31500 (1988) 95200 31900 35400 52200 55300 65300 95000 98700 253000 310000
2020-09-17 17:30 16.02 111000 313000 (1993) 31500 (1988) 95200 31900 35400 52200 55300 65300 95000 98700 253000 310000
2020-09-17 17:00 16.05 112000 313000 (1993) 31500 (1988) 95200 31900 35400 52200 55300 65300 95000 98700 253000 310000
2020-09-17 16:30 16.05 113000 313000 (1993) 31500 (1988) 95200 31900 35400 52200 55300 65300 95000 98700 253000 310000
2020-09-17 16:00 16.06 112000 313000 (1993) 31500 (1988) 95200 31900 35400 52200 55300 65300 95000 98700 253000 310000
2020-09-17 15:30 16.07 113000 313000 (1993) 31500 (1988) 95200 31900 35400 52200 55300 65300 95000 98700 253000 310000
2020-09-17 15:00 16.07 112000 313000 (1993) 31500 (1988) 95200 31900 35400 52200 55300 65300 95000 98700 253000 310000
2020-09-17 14:30 16.08 113000 313000 (1993) 31500 (1988) 95200 31900 35400 52200 55300 65300 95000 98700 253000 310000
2020-09-17 14:00 16.09 113000 313000 (1993) 31500 (1988) 95200 31900 35400 52200 55300 65300 95000 98700 253000 310000
2020-09-17 13:30 16.09 113000 313000 (1993) 31500 (1988) 95200 31900 35400 52200 55300 65300 95000 98700 253000 310000
2020-09-17 13:00 16.10 113000 313000 (1993) 31500 (1988) 95200 31900 35400 52200 55300 65300 95000 98700 253000 310000
2020-09-17 12:30 16.11 113000 313000 (1993) 31500 (1988) 95200 31900 35400 52200 55300 65300 95000 98700 253000 310000
2020-09-17 12:00 16.11 313000 (1993) 31500 (1988) 95200 31900 35400 52200 55300 65300 95000 98700 253000 310000
2020-09-17 11:30 16.10 112000 313000 (1993) 31500 (1988) 95200 31900 35400 52200 55300 65300 95000 98700 253000 310000
2020-09-17 11:00 16.11 313000 (1993) 31500 (1988) 95200 31900 35400 52200 55300 65300 95000 98700 253000 310000
2020-09-17 10:30 16.11 112000 313000 (1993) 31500 (1988) 95200 31900 35400 52200 55300 65300 95000 98700 253000 310000
2020-09-17 10:00 16.12 112000 313000 (1993) 31500 (1988) 95200 31900 35400 52200 55300 65300 95000 98700 253000 310000
2020-09-17 09:30 16.12 113000 313000 (1993) 31500 (1988) 95200 31900 35400 52200 55300 65300 95000 98700 253000 310000
2020-09-17 09:00 16.12 313000 (1993) 31500 (1988) 95200 31900 35400 52200 55300 65300 95000 98700 253000 310000
2020-09-17 08:30 16.12 113000 313000 (1993) 31500 (1988) 95200 31900 35400 52200 55300 65300 95000 98700 253000 310000
2020-09-17 08:00 16.11 112000 313000 (1993) 31500 (1988) 95200 31900 35400 52200 55300 65300 95000 98700 253000 310000
2020-09-17 07:30 16.12 113000 313000 (1993) 31500 (1988) 95200 31900 35400 52200 55300 65300 95000 98700 253000 310000
2020-09-17 07:00 16.14 114000 313000 (1993) 31500 (1988) 95200 31900 35400 52200 55300 65300 95000 98700 253000 310000
2020-09-17 06:30 16.13 113000 313000 (1993) 31500 (1988) 95200 31900 35400 52200 55300 65300 95000 98700 253000 310000
2020-09-17 06:00 16.12 113000 313000 (1993) 31500 (1988) 95200 31900 35400 52200 55300 65300 95000 98700 253000 310000
2020-09-17 05:30 16.12 112000 313000 (1993) 31500 (1988) 95200 31900 35400 52200 55300 65300 95000 98700 253000 310000
2020-09-17 05:00 16.12 112000 313000 (1993) 31500 (1988) 95200 31900 35400 52200 55300 65300 95000 98700 253000 310000
2020-09-17 04:30 16.12 112000 313000 (1993) 31500 (1988) 95200 31900 35400 52200 55300 65300 95000 98700 253000 310000
2020-09-17 04:00 16.13 113000 313000 (1993) 31500 (1988) 95200 31900 35400 52200 55300 65300 95000 98700 253000 310000
2020-09-17 03:30 16.14 113000 313000 (1993) 31500 (1988) 95200 31900 35400 52200 55300 65300 95000 98700 253000 310000
2020-09-17 03:00 16.14 113000 313000 (1993) 31500 (1988) 95200 31900 35400 52200 55300 65300 95000 98700 253000 310000
2020-09-17 02:30 16.12 112000 313000 (1993) 31500 (1988) 95200 31900 35400 52200 55300 65300 95000 98700 253000 310000
2020-09-17 02:00 16.13 112000 313000 (1993) 31500 (1988) 95200 31900 35400 52200 55300 65300 95000 98700 253000 310000
2020-09-17 01:30 16.14 112000 313000 (1993) 31500 (1988) 95200 31900 35400 52200 55300 65300 95000 98700 253000 310000
2020-09-17 01:00 16.14 112000 313000 (1993) 31500 (1988) 95200 31900 35400 52200 55300 65300 95000 98700 253000 310000
2020-09-17 00:30 16.14 112000 313000 (1993) 31500 (1988) 95200 31900 35400 52200 55300 65300 95000 98700 253000 310000
2020-09-17 00:00 16.14 112000 313000 (1993) 31500 (1988) 95200 31900 35400 52200 55300 65300 95000 98700 253000 310000
2020-09-16 23:30 16.15 112000 311000 (1993) 31600 (2012) 95500 33400 36600 50200 56000 68200 95300 105000 257000 301000
2020-09-16 23:00 16.16 311000 (1993) 31600 (2012) 95500 33400 36600 50200 56000 68200 95300 105000 257000 301000
2020-09-16 22:30 16.15 111000 311000 (1993) 31600 (2012) 95500 33400 36600 50200 56000 68200 95300 105000 257000 301000
2020-09-16 22:00 16.14 111000 311000 (1993) 31600 (2012) 95500 33400 36600 50200 56000 68200 95300 105000 257000 301000
2020-09-16 21:30 16.14 111000 311000 (1993) 31600 (2012) 95500 33400 36600 50200 56000 68200 95300 105000 257000 301000
2020-09-16 21:00 16.14 111000 311000 (1993) 31600 (2012) 95500 33400 36600 50200 56000 68200 95300 105000 257000 301000
2020-09-16 20:30 16.13 111000 311000 (1993) 31600 (2012) 95500 33400 36600 50200 56000 68200 95300 105000 257000 301000
2020-09-16 20:00 16.13 111000 311000 (1993) 31600 (2012) 95500 33400 36600 50200 56000 68200 95300 105000 257000 301000
2020-09-16 19:30 16.14 111000 311000 (1993) 31600 (2012) 95500 33400 36600 50200 56000 68200 95300 105000 257000 301000
2020-09-16 19:00 16.14 111000 311000 (1993) 31600 (2012) 95500 33400 36600 50200 56000 68200 95300 105000 257000 301000
2020-09-16 18:30 16.12 111000 311000 (1993) 31600 (2012) 95500 33400 36600 50200 56000 68200 95300 105000 257000 301000
2020-09-16 18:00 16.13 311000 (1993) 31600 (2012) 95500 33400 36600 50200 56000 68200 95300 105000 257000 301000
2020-09-16 17:30 16.11 311000 (1993) 31600 (2012) 95500 33400 36600 50200 56000 68200 95300 105000 257000 301000
2020-09-16 17:00 16.12 112000 311000 (1993) 31600 (2012) 95500 33400 36600 50200 56000 68200 95300 105000 257000 301000
2020-09-16 16:30 16.13 114000 311000 (1993) 31600 (2012) 95500 33400 36600 50200 56000 68200 95300 105000 257000 301000
2020-09-16 16:00 16.13 114000 311000 (1993) 31600 (2012) 95500 33400 36600 50200 56000 68200 95300 105000 257000 301000
2020-09-16 15:30 16.12 311000 (1993) 31600 (2012) 95500 33400 36600 50200 56000 68200 95300 105000 257000 301000
2020-09-16 15:00 16.03 311000 (1993) 31600 (2012) 95500 33400 36600 50200 56000 68200 95300 105000 257000 301000
2020-09-16 14:30 16.09 114000 311000 (1993) 31600 (2012) 95500 33400 36600 50200 56000 68200 95300 105000 257000 301000
2020-09-16 14:00 16.08 114000 311000 (1993) 31600 (2012) 95500 33400 36600 50200 56000 68200 95300 105000 257000 301000
2020-09-16 13:30 16.04 311000 (1993) 31600 (2012) 95500 33400 36600 50200 56000 68200 95300 105000 257000 301000
2020-09-16 13:00 16.04 311000 (1993) 31600 (2012) 95500 33400 36600 50200 56000 68200 95300 105000 257000 301000
2020-09-16 12:30 16.03 116000 311000 (1993) 31600 (2012) 95500 33400 36600 50200 56000 68200 95300 105000 257000 301000
2020-09-16 12:00 16.04 117000 311000 (1993) 31600 (2012) 95500 33400 36600 50200 56000 68200 95300 105000 257000 301000
2020-09-16 11:30 16.04 117000 311000 (1993) 31600 (2012) 95500 33400 36600 50200 56000 68200 95300 105000 257000 301000
2020-09-16 11:00 16.04 117000 311000 (1993) 31600 (2012) 95500 33400 36600 50200 56000 68200 95300 105000 257000 301000
2020-09-16 10:30 16.04 117000 311000 (1993) 31600 (2012) 95500 33400 36600 50200 56000 68200 95300 105000 257000 301000
2020-09-16 10:00 16.02 116000 311000 (1993) 31600 (2012) 95500 33400 36600 50200 56000 68200 95300 105000 257000 301000
2020-09-16 09:30 16.01 115000 311000 (1993) 31600 (2012) 95500 33400 36600 50200 56000 68200 95300 105000 257000 301000
2020-09-16 09:00 16.02 116000 311000 (1993) 31600 (2012) 95500 33400 36600 50200 56000 68200 95300 105000 257000 301000
2020-09-16 08:30 16.00 115000 311000 (1993) 31600 (2012) 95500 33400 36600 50200 56000 68200 95300 105000 257000 301000
2020-09-16 08:00 16.03 116000 311000 (1993) 31600 (2012) 95500 33400 36600 50200 56000 68200 95300 105000 257000 301000
2020-09-16 07:30 16.00 115000 311000 (1993) 31600 (2012) 95500 33400 36600 50200 56000 68200 95300 105000 257000 301000
2020-09-16 07:00 16.02 116000 311000 (1993) 31600 (2012) 95500 33400 36600 50200 56000 68200 95300 105000 257000 301000
2020-09-16 06:30 16.03 117000 311000 (1993) 31600 (2012) 95500 33400 36600 50200 56000 68200 95300 105000 257000 301000
2020-09-16 06:00 16.03 311000 (1993) 31600 (2012) 95500 33400 36600 50200 56000 68200 95300 105000 257000 301000
2020-09-16 05:30 16.03 116000 311000 (1993) 31600 (2012) 95500 33400 36600 50200 56000 68200 95300 105000 257000 301000
2020-09-16 05:00 16.03 115000 311000 (1993) 31600 (2012) 95500 33400 36600 50200 56000 68200 95300 105000 257000 301000
2020-09-16 04:30 16.02 116000 311000 (1993) 31600 (2012) 95500 33400 36600 50200 56000 68200 95300 105000 257000 301000
2020-09-16 04:00 16.00 115000 311000 (1993) 31600 (2012) 95500 33400 36600 50200 56000 68200 95300 105000 257000 301000
2020-09-16 03:30 16.00 311000 (1993) 31600 (2012) 95500 33400 36600 50200 56000 68200 95300 105000 257000 301000
2020-09-16 03:00 15.98 311000 (1993) 31600 (2012) 95500 33400 36600 50200 56000 68200 95300 105000 257000 301000
2020-09-16 02:30 15.96 113000 311000 (1993) 31600 (2012) 95500 33400 36600 50200 56000 68200 95300 105000 257000 301000
2020-09-16 02:00 15.95 311000 (1993) 31600 (2012) 95500 33400 36600 50200 56000 68200 95300 105000 257000 301000
2020-09-16 01:30 15.95 311000 (1993) 31600 (2012) 95500 33400 36600 50200 56000 68200 95300 105000 257000 301000
2020-09-16 01:00 15.93 112000 311000 (1993) 31600 (2012) 95500 33400 36600 50200 56000 68200 95300 105000 257000 301000
2020-09-16 00:30 15.91 109000 311000 (1993) 31600 (2012) 95500 33400 36600 50200 56000 68200 95300 105000 257000 301000
2020-09-16 00:00 15.91 311000 (1993) 31600 (2012) 95500 33400 36600 50200 56000 68200 95300 105000 257000 301000

A total of 339 rows are displayed for years 1987 through 2018.